createdAt,value
2019-02-18T00:00:38.577Z,1.8
2019-02-18T00:01:38.567Z,3.9
2019-02-18T00:02:38.614Z,3.9
2019-02-18T00:03:38.684Z,0
2019-02-18T00:04:38.581Z,1.8
2019-02-18T00:05:38.609Z,0
2019-02-18T00:06:38.553Z,0
2019-02-18T00:07:38.643Z,0
2019-02-18T00:08:38.612Z,0
2019-02-18T00:09:38.599Z,6.6
2019-02-18T00:10:38.557Z,9.5
2019-02-18T00:11:38.547Z,9.5
2019-02-18T00:12:38.595Z,6.6
2019-02-18T00:13:38.599Z,9.5
2019-02-18T00:14:38.598Z,9.5
2019-02-18T00:15:38.603Z,9.5
2019-02-18T00:16:38.662Z,9.5
2019-02-18T00:17:40.736Z,9.5
2019-02-18T00:18:38.635Z,6.6
2019-02-18T00:19:38.581Z,6.6
2019-02-18T00:20:38.559Z,6.6
2019-02-18T00:21:38.622Z,3.9
2019-02-18T00:22:38.523Z,0
2019-02-18T00:23:38.628Z,3.9
2019-02-18T00:24:38.554Z,6.6
2019-02-18T00:25:38.563Z,1.8
2019-02-18T00:26:38.558Z,6.6
2019-02-18T00:27:42.233Z,6.6
2019-02-18T00:28:38.519Z,6.6
2019-02-18T00:29:38.563Z,3.9
2019-02-18T00:30:38.557Z,1.8
2019-02-18T00:31:38.555Z,0
2019-02-18T00:32:38.588Z,6.6
2019-02-18T00:33:38.534Z,3.9
2019-02-18T00:34:38.569Z,6.6
2019-02-18T00:35:38.562Z,6.6
2019-02-18T00:36:38.635Z,6.6
2019-02-18T00:37:38.531Z,3.9
2019-02-18T00:38:38.545Z,3.9
2019-02-18T00:39:38.538Z,6.6
2019-02-18T00:40:38.566Z,3.9
2019-02-18T00:41:38.566Z,1.8
2019-02-18T00:42:38.558Z,1.8
2019-02-18T00:43:38.548Z,1.8
2019-02-18T00:44:38.509Z,0
2019-02-18T00:45:38.616Z,0
2019-02-18T00:46:38.562Z,0
2019-02-18T00:47:38.554Z,0
2019-02-18T00:48:38.535Z,0
2019-02-18T00:49:39.271Z,0
2019-02-18T00:50:38.575Z,0
2019-02-18T00:51:38.547Z,0
2019-02-18T00:52:38.550Z,0
2019-02-18T00:53:38.575Z,0
2019-02-18T00:54:38.540Z,0
2019-02-18T00:55:38.518Z,0
2019-02-18T00:56:38.543Z,0
2019-02-18T00:57:38.627Z,0
2019-02-18T00:58:38.517Z,0
2019-02-18T00:59:38.550Z,0
2019-02-18T01:00:38.501Z,0
2019-02-18T01:01:38.511Z,0
2019-02-18T01:02:38.616Z,0
2019-02-18T01:03:38.499Z,0
2019-02-18T01:04:38.538Z,0
2019-02-18T01:05:38.614Z,3.9
2019-02-18T01:06:38.495Z,6.6
2019-02-18T01:07:38.547Z,21.3
2019-02-18T01:08:38.572Z,6.6
2019-02-18T01:09:38.600Z,6.6
2019-02-18T01:10:38.539Z,3.9
2019-02-18T01:11:38.504Z,6.6
2019-02-18T01:12:38.489Z,9.5
2019-02-18T01:13:38.575Z,9.5
2019-02-18T01:14:38.729Z,9.5
2019-02-18T01:15:38.584Z,9.5
2019-02-18T01:16:38.535Z,6.6
2019-02-18T01:17:38.503Z,9.5
2019-02-18T01:18:38.594Z,6.6
2019-02-18T01:19:38.536Z,6.6
2019-02-18T01:20:38.625Z,12.4
2019-02-18T01:21:38.534Z,6.6
2019-02-18T01:22:38.498Z,3.9
2019-02-18T01:23:38.623Z,3.9
2019-02-18T01:24:38.542Z,3.9
2019-02-18T01:25:38.604Z,3.9
2019-02-18T01:26:38.527Z,3.9
2019-02-18T01:27:38.564Z,1.8
2019-02-18T01:28:38.526Z,0
2019-02-18T01:29:38.530Z,0
2019-02-18T01:30:38.599Z,3.9
2019-02-18T01:31:38.534Z,3.9
2019-02-18T01:32:38.527Z,0
2019-02-18T01:33:38.486Z,0
2019-02-18T01:34:38.543Z,0
2019-02-18T01:35:38.604Z,0
2019-02-18T01:36:38.504Z,0
2019-02-18T01:37:46.823Z,6.6
2019-02-18T01:38:38.545Z,3.9
2019-02-18T01:39:38.501Z,6.6
2019-02-18T01:40:38.489Z,3.9
2019-02-18T01:41:38.581Z,3.9
2019-02-18T01:42:38.528Z,3.9
2019-02-18T01:43:38.511Z,3.9
2019-02-18T01:44:38.479Z,3.9
2019-02-18T01:45:38.531Z,3.9
2019-02-18T01:46:38.577Z,1.8
2019-02-18T01:47:38.522Z,0
2019-02-18T01:48:38.521Z,15.4
2019-02-18T01:49:38.565Z,12.4
2019-02-18T01:50:38.574Z,3.9
2019-02-18T01:51:38.525Z,3.9
2019-02-18T01:52:38.518Z,0
2019-02-18T01:53:38.578Z,0
2019-02-18T01:54:38.517Z,0
2019-02-18T01:55:38.550Z,0
2019-02-18T01:56:38.493Z,0
2019-02-18T01:57:38.593Z,0
2019-02-18T01:58:38.522Z,1.8
2019-02-18T01:59:38.514Z,0
2019-02-18T02:00:38.553Z,0
2019-02-18T02:01:38.469Z,0
2019-02-18T02:02:38.512Z,0
2019-02-18T02:03:38.578Z,0
2019-02-18T02:04:38.508Z,0
2019-02-18T02:05:38.595Z,0
2019-02-18T02:06:38.493Z,0
2019-02-18T02:07:38.548Z,0
2019-02-18T02:08:38.562Z,0
2019-02-18T02:09:38.488Z,0
2019-02-18T02:10:38.504Z,0
2019-02-18T02:11:38.534Z,0
2019-02-18T02:12:38.479Z,0
2019-02-18T02:13:38.494Z,0
2019-02-18T02:14:38.520Z,0
2019-02-18T02:15:38.562Z,0
2019-02-18T02:16:39.954Z,0
2019-02-18T02:17:38.489Z,0
2019-02-18T02:18:38.511Z,1.8
2019-02-18T02:19:38.576Z,0
2019-02-18T02:20:38.530Z,0
2019-02-18T02:21:38.580Z,0
2019-02-18T02:22:38.469Z,3.9
2019-02-18T02:23:38.510Z,3.9
2019-02-18T02:24:38.499Z,3.9
2019-02-18T02:25:38.514Z,3.9
2019-02-18T02:26:38.582Z,3.9
2019-02-18T02:27:38.521Z,3.9
2019-02-18T02:28:39.536Z,3.9
2019-02-18T02:29:38.510Z,6.6
2019-02-18T02:30:38.581Z,6.6
2019-02-18T02:31:38.519Z,3.9
2019-02-18T02:32:38.500Z,3.9
2019-02-18T02:33:38.482Z,6.6
2019-02-18T02:34:38.529Z,6.6
2019-02-18T02:35:38.553Z,3.9
2019-02-18T02:36:38.495Z,1.8
2019-02-18T02:37:38.581Z,0
2019-02-18T02:38:38.549Z,0
2019-02-18T02:39:38.465Z,0
2019-02-18T02:40:38.501Z,0
2019-02-18T02:41:38.501Z,3.9
2019-02-18T02:42:38.571Z,1.8
2019-02-18T02:43:38.583Z,0
2019-02-18T02:44:38.487Z,3.9
2019-02-18T02:45:38.503Z,1.8
2019-02-18T02:46:38.498Z,0
2019-02-18T02:47:38.570Z,3.9
2019-02-18T02:48:38.501Z,3.9
2019-02-18T02:49:38.459Z,3.9
2019-02-18T02:50:38.531Z,3.9
2019-02-18T02:51:38.485Z,3.9
2019-02-18T02:52:38.486Z,1.8
2019-02-18T02:53:38.562Z,1.8
2019-02-18T02:54:38.489Z,6.6
2019-02-18T02:55:38.440Z,6.6
2019-02-18T02:56:38.681Z,3.9
2019-02-18T02:57:38.575Z,0
2019-02-18T02:58:38.518Z,0
2019-02-18T02:59:38.492Z,0
2019-02-18T03:00:38.449Z,0
2019-02-18T03:01:38.534Z,1.8
2019-02-18T03:02:38.560Z,1.8
2019-02-18T03:03:38.511Z,0
2019-02-18T03:04:38.472Z,0
2019-02-18T03:05:41.872Z,0
2019-02-18T03:06:38.522Z,0
2019-02-18T03:07:38.473Z,3.9
2019-02-18T03:08:38.480Z,0
2019-02-18T03:09:38.487Z,0
2019-02-18T03:10:38.500Z,0
2019-02-18T03:11:38.526Z,1.8
2019-02-18T03:12:38.499Z,3.9
2019-02-18T03:13:38.543Z,6.6
2019-02-18T03:14:38.482Z,6.6
2019-02-18T03:15:38.526Z,3.9
2019-02-18T03:16:38.530Z,1.8
2019-02-18T03:17:38.473Z,3.9
2019-02-18T03:18:38.446Z,3.9
2019-02-18T03:19:38.531Z,3.9
2019-02-18T03:20:38.460Z,6.6
2019-02-18T03:21:38.540Z,0
2019-02-18T03:22:38.458Z,3.9
2019-02-18T03:23:38.522Z,0
2019-02-18T03:24:38.466Z,1.8
2019-02-18T03:25:38.497Z,0
2019-02-18T03:26:38.433Z,0
2019-02-18T03:27:38.439Z,0
2019-02-18T03:28:38.454Z,0
2019-02-18T03:29:38.447Z,0
2019-02-18T03:30:38.555Z,0
2019-02-18T03:31:38.447Z,1.8
2019-02-18T03:32:38.455Z,3.9
2019-02-18T03:33:38.484Z,3.9
2019-02-18T03:34:38.499Z,1.8
2019-02-18T03:35:38.506Z,3.9
2019-02-18T03:36:38.458Z,6.6
2019-02-18T03:37:38.455Z,6.6
2019-02-18T03:38:40.381Z,3.9
2019-02-18T03:39:38.518Z,3.9
2019-02-18T03:40:38.481Z,3.9
2019-02-18T03:41:40.866Z,6.6
2019-02-18T03:42:38.498Z,6.6
2019-02-18T03:43:38.479Z,9.5
2019-02-18T03:44:38.534Z,3.9
2019-02-18T03:45:38.500Z,6.6
2019-02-18T03:46:50.584Z,6.6
2019-02-18T03:47:38.470Z,3.9
2019-02-18T03:48:38.494Z,0
2019-02-18T03:49:38.564Z,3.9
2019-02-18T03:50:38.550Z,3.9
2019-02-18T03:51:38.505Z,6.6
2019-02-18T03:52:38.505Z,6.6
2019-02-18T03:53:38.443Z,3.9
2019-02-18T03:54:38.433Z,3.9
2019-02-18T03:55:38.497Z,0
2019-02-18T03:56:38.499Z,0
2019-02-18T03:57:38.430Z,0
2019-02-18T03:58:38.433Z,0
2019-02-18T03:59:38.449Z,0
2019-02-18T04:00:38.509Z,0
2019-02-18T04:01:38.547Z,0
2019-02-18T04:02:38.480Z,0
2019-02-18T04:03:38.430Z,0
2019-02-18T04:04:38.472Z,0
2019-02-18T04:05:38.454Z,1.8
2019-02-18T04:06:38.426Z,3.9
2019-02-18T04:07:38.449Z,1.8
2019-02-18T04:08:44.356Z,3.9
2019-02-18T04:09:38.565Z,3.9
2019-02-18T04:10:38.450Z,3.9
2019-02-18T04:11:38.417Z,1.8
2019-02-18T04:12:38.426Z,0
2019-02-18T04:13:38.464Z,0
2019-02-18T04:14:38.435Z,0
2019-02-18T04:15:38.410Z,0
2019-02-18T04:16:41.512Z,0
2019-02-18T04:17:38.472Z,0
2019-02-18T04:18:38.434Z,0
2019-02-18T04:19:38.417Z,0
2019-02-18T04:20:38.478Z,0
2019-02-18T04:21:38.472Z,0
2019-02-18T04:22:38.461Z,0
2019-02-18T04:23:38.407Z,0
2019-02-18T04:24:38.453Z,0
2019-02-18T04:25:38.494Z,0
2019-02-18T04:26:38.406Z,0
2019-02-18T04:27:39.217Z,0
2019-02-18T04:28:38.480Z,0
2019-02-18T04:29:38.523Z,0
2019-02-18T04:30:38.419Z,0
2019-02-18T04:31:38.452Z,0
2019-02-18T04:32:38.418Z,0
2019-02-18T04:33:38.488Z,0
2019-02-18T04:34:38.402Z,0
2019-02-18T04:35:38.432Z,0
2019-02-18T04:36:38.413Z,0
2019-02-18T04:37:38.408Z,0
2019-02-18T04:38:38.477Z,0
2019-02-18T04:39:38.426Z,0
2019-02-18T04:40:38.463Z,0
2019-02-18T04:41:38.409Z,0
2019-02-18T04:42:38.404Z,0
2019-02-18T04:43:38.482Z,0
2019-02-18T04:44:38.475Z,0
2019-02-18T04:45:38.469Z,0
2019-02-18T04:46:38.432Z,0
2019-02-18T04:47:38.422Z,0
2019-02-18T04:48:38.489Z,6.6
2019-02-18T04:49:38.424Z,6.6
2019-02-18T04:50:38.475Z,6.6
2019-02-18T04:51:38.409Z,3.9
2019-02-18T04:52:38.399Z,6.6
2019-02-18T04:53:38.409Z,6.6
2019-02-18T04:54:38.397Z,6.6
2019-02-18T04:55:38.478Z,3.9
2019-02-18T04:56:38.412Z,6.6
2019-02-18T04:57:38.381Z,3.9
2019-02-18T04:58:38.427Z,3.9
2019-02-18T04:59:38.413Z,3.9
2019-02-18T05:00:38.462Z,3.9
2019-02-18T05:01:38.412Z,3.9
2019-02-18T05:02:38.413Z,1.8
2019-02-18T05:03:38.397Z,1.8
2019-02-18T05:04:38.404Z,0
2019-02-18T05:05:38.467Z,0
2019-02-18T05:06:38.517Z,0
2019-02-18T05:07:38.411Z,1.8
2019-02-18T05:08:38.409Z,1.8
2019-02-18T05:09:41.129Z,3.9
2019-02-18T05:10:38.460Z,1.8
2019-02-18T05:11:38.456Z,1.8
2019-02-18T05:12:38.406Z,0
2019-02-18T05:13:38.393Z,0
2019-02-18T05:14:38.396Z,0
2019-02-18T05:15:40.171Z,0
2019-02-18T05:16:38.440Z,0
2019-02-18T05:17:38.371Z,0
2019-02-18T05:18:38.404Z,0
2019-02-18T05:19:38.401Z,0
2019-02-18T05:20:38.393Z,0
2019-02-18T05:21:38.658Z,0
2019-02-18T05:22:38.439Z,0
2019-02-18T05:23:38.387Z,0
2019-02-18T05:24:38.421Z,0
2019-02-18T05:25:38.392Z,0
2019-02-18T05:26:38.446Z,0
2019-02-18T05:27:38.460Z,0
2019-02-18T05:28:38.384Z,3.9
2019-02-18T05:29:38.379Z,6.6
2019-02-18T05:30:38.367Z,6.6
2019-02-18T05:31:38.556Z,6.6
2019-02-18T05:32:38.387Z,1.8
2019-02-18T05:33:38.390Z,0
2019-02-18T05:34:38.393Z,0
2019-02-18T05:35:38.391Z,0
2019-02-18T05:36:38.456Z,0
2019-02-18T05:37:38.442Z,0
2019-02-18T05:38:38.368Z,0
2019-02-18T05:39:38.392Z,0
2019-02-18T05:40:38.395Z,3.9
2019-02-18T05:41:38.537Z,3.9
2019-02-18T05:42:38.376Z,3.9
2019-02-18T05:43:38.423Z,6.6
2019-02-18T05:44:38.372Z,6.6
2019-02-18T05:45:38.422Z,6.6
2019-02-18T05:46:38.391Z,6.6
2019-02-18T05:47:38.484Z,3.9
2019-02-18T05:48:38.363Z,3.9
2019-02-18T05:49:38.426Z,6.6
2019-02-18T05:50:38.366Z,9.5
2019-02-18T05:51:38.393Z,9.5
2019-02-18T05:52:38.365Z,6.6
2019-02-18T05:53:38.370Z,6.6
2019-02-18T05:54:38.364Z,6.6
2019-02-18T05:55:38.484Z,6.6
2019-02-18T05:56:38.389Z,6.6
2019-02-18T05:57:38.363Z,6.6
2019-02-18T05:58:38.689Z,3.9
2019-02-18T05:59:38.406Z,3.9
2019-02-18T06:00:38.378Z,1.8
2019-02-18T06:01:38.377Z,0
2019-02-18T06:02:38.349Z,0
2019-02-18T06:03:38.432Z,0
2019-02-18T06:04:38.478Z,1.8
2019-02-18T06:05:38.380Z,1.8
2019-02-18T06:06:38.411Z,0
2019-02-18T06:07:38.352Z,0
2019-02-18T06:08:38.483Z,0
2019-02-18T06:09:38.371Z,0
2019-02-18T06:10:38.365Z,6.6
2019-02-18T06:11:38.361Z,6.6
2019-02-18T06:12:38.348Z,6.6
2019-02-18T06:13:38.467Z,9.5
2019-02-18T06:14:38.411Z,9.5
2019-02-18T06:15:38.371Z,9.5
2019-02-18T06:16:40.167Z,9.5
2019-02-18T06:17:38.354Z,12.4
2019-02-18T06:18:38.370Z,12.4
2019-02-18T06:19:38.463Z,12.4
2019-02-18T06:20:38.365Z,12.4
2019-02-18T06:21:38.363Z,12.4
2019-02-18T06:22:40.100Z,9.5
2019-02-18T06:23:38.354Z,9.5
2019-02-18T06:24:38.443Z,6.6
2019-02-18T06:25:38.347Z,9.5
2019-02-18T06:26:38.341Z,9.5
2019-02-18T06:27:38.429Z,6.6
2019-02-18T06:28:38.363Z,6.6
2019-02-18T06:29:38.384Z,9.5
2019-02-18T06:30:38.421Z,12.4
2019-02-18T06:31:38.350Z,12.4
2019-02-18T06:32:38.411Z,12.4
2019-02-18T06:33:38.412Z,12.4
2019-02-18T06:34:38.353Z,12.4
2019-02-18T06:35:38.357Z,12.4
2019-02-18T06:36:38.457Z,9.5
2019-02-18T06:37:38.332Z,9.5
2019-02-18T06:38:38.342Z,9.5
2019-02-18T06:39:42.907Z,9.5
2019-02-18T06:40:38.344Z,9.5
2019-02-18T06:41:38.399Z,9.5
2019-02-18T06:42:38.451Z,12.4
2019-02-18T06:43:38.357Z,12.4
2019-02-18T06:44:38.375Z,12.4
2019-02-18T06:45:38.330Z,12.4
2019-02-18T06:46:38.341Z,12.4
2019-02-18T06:47:38.409Z,12.4
2019-02-18T06:48:38.350Z,12.4
2019-02-18T06:49:38.328Z,12.4
2019-02-18T06:50:38.381Z,9.5
2019-02-18T06:51:38.399Z,9.5
2019-02-18T06:52:38.338Z,3.9
2019-02-18T06:53:38.393Z,1.8
2019-02-18T06:54:38.342Z,6.6
2019-02-18T06:55:38.338Z,9.5
2019-02-18T06:56:38.341Z,12.4
2019-02-18T06:57:38.429Z,12.4
2019-02-18T06:58:38.333Z,12.4
2019-02-18T06:59:38.348Z,12.4
2019-02-18T07:00:38.331Z,9.5
2019-02-18T07:01:38.348Z,9.5
2019-02-18T07:02:38.405Z,6.6
2019-02-18T07:03:38.334Z,3.9
2019-02-18T07:04:38.340Z,1.8
2019-02-18T07:05:41.016Z,1.8
2019-02-18T07:06:38.383Z,0
2019-02-18T07:08:38.317Z,0
2019-02-18T07:09:38.345Z,1.8
2019-02-18T07:10:38.326Z,0
2019-02-18T07:11:38.417Z,0
2019-02-18T07:12:38.320Z,0
2019-02-18T07:13:38.374Z,0
2019-02-18T07:14:38.322Z,0
2019-02-18T07:15:38.343Z,0
2019-02-18T07:16:40.592Z,0
2019-02-18T07:17:38.330Z,0
2019-02-18T07:18:38.320Z,0
2019-02-18T07:19:38.348Z,0
2019-02-18T07:20:38.371Z,0
2019-02-18T07:21:38.333Z,6.6
2019-02-18T07:22:38.377Z,6.6
2019-02-18T07:23:38.307Z,6.6
2019-02-18T07:24:38.317Z,6.6
2019-02-18T07:25:38.429Z,9.5
2019-02-18T07:26:38.337Z,9.5
2019-02-18T07:27:38.341Z,9.5
2019-02-18T07:28:38.323Z,9.5
2019-02-18T07:29:38.338Z,6.6
2019-02-18T07:30:38.392Z,6.6
2019-02-18T07:31:38.317Z,6.6
2019-02-18T07:32:38.328Z,3.9
2019-02-18T07:33:38.388Z,3.9
2019-02-18T07:34:38.334Z,3.9
2019-02-18T07:35:38.322Z,3.9
2019-02-18T07:36:38.324Z,6.6
2019-02-18T07:37:38.365Z,6.6
2019-02-18T07:38:38.392Z,3.9
2019-02-18T07:39:38.346Z,3.9
2019-02-18T07:40:38.321Z,3.9
2019-02-18T07:41:38.341Z,3.9
2019-02-18T07:42:38.329Z,3.9
2019-02-18T07:43:38.991Z,3.9
2019-02-18T07:44:38.387Z,1.8
2019-02-18T07:45:38.356Z,1.8
2019-02-18T07:46:38.353Z,3.9
2019-02-18T07:47:38.369Z,0
2019-02-18T07:48:38.348Z,0
2019-02-18T07:49:38.401Z,0
2019-02-18T07:50:38.360Z,0
2019-02-18T07:51:38.397Z,0
2019-02-18T07:52:38.359Z,0
2019-02-18T07:53:38.417Z,0
2019-02-18T07:54:38.411Z,0
2019-02-18T07:55:38.374Z,0
2019-02-18T07:56:38.437Z,0
2019-02-18T07:57:38.355Z,0
2019-02-18T07:58:38.375Z,0
2019-02-18T07:59:38.350Z,1.8
2019-02-18T08:00:38.332Z,0
2019-02-18T08:01:38.414Z,0
2019-02-18T08:02:38.426Z,0
2019-02-18T08:03:38.355Z,1.8
2019-02-18T08:04:38.362Z,3.9
2019-02-18T08:05:38.394Z,3.9
2019-02-18T08:06:38.374Z,3.9
2019-02-18T08:07:38.404Z,0
2019-02-18T08:08:38.372Z,1.8
2019-02-18T08:09:38.360Z,3.9
2019-02-18T08:10:38.331Z,1.8
2019-02-18T08:11:38.391Z,1.8
2019-02-18T08:12:38.358Z,1.8
2019-02-18T08:13:38.341Z,0
2019-02-18T08:14:38.358Z,0
2019-02-18T08:15:38.433Z,1.8
2019-02-18T08:16:38.399Z,1.8
2019-02-18T08:17:38.328Z,1.8
2019-02-18T08:18:38.478Z,0
2019-02-18T08:19:38.350Z,0
2019-02-18T08:20:38.367Z,0
2019-02-18T08:21:38.354Z,0
2019-02-18T08:22:38.341Z,0
2019-02-18T08:23:38.430Z,0
2019-02-18T08:24:38.340Z,0
2019-02-18T08:25:38.362Z,0
2019-02-18T08:26:38.372Z,0
2019-02-18T08:27:38.319Z,0
2019-02-18T08:28:38.342Z,0
2019-02-18T08:29:38.431Z,0
2019-02-18T08:30:38.376Z,0
2019-02-18T08:31:38.337Z,0
2019-02-18T08:32:38.362Z,0
2019-02-18T08:33:38.401Z,0
2019-02-18T08:34:38.374Z,0
2019-02-18T08:35:38.355Z,0
2019-02-18T08:36:38.357Z,0
2019-02-18T08:37:38.354Z,0
2019-02-18T08:38:38.397Z,0
2019-02-18T08:39:38.335Z,0
2019-02-18T08:40:38.354Z,0
2019-02-18T08:41:38.344Z,0
2019-02-18T08:42:38.426Z,0
2019-02-18T08:43:38.375Z,0
2019-02-18T08:44:38.322Z,0
2019-02-18T08:45:38.423Z,0
2019-02-18T08:46:38.356Z,0
2019-02-18T08:47:38.343Z,0
2019-02-18T08:48:38.362Z,0
2019-02-18T08:49:38.393Z,0
2019-02-18T08:50:38.358Z,0
2019-02-18T08:51:38.360Z,0
2019-02-18T08:52:38.415Z,0
2019-02-18T08:53:38.364Z,0
2019-02-18T08:54:38.439Z,0
2019-02-18T08:55:38.346Z,0
2019-02-18T08:56:38.355Z,0
2019-02-18T08:57:38.366Z,0
2019-02-18T08:58:38.356Z,0
2019-02-18T08:59:38.457Z,0
2019-02-18T09:00:38.376Z,0
2019-02-18T09:01:38.348Z,0
2019-02-18T09:02:38.357Z,0
2019-02-18T09:03:38.382Z,0
2019-02-18T09:04:38.423Z,0
2019-02-18T09:05:38.352Z,3.9
2019-02-18T09:06:38.403Z,6.6
2019-02-18T09:07:38.350Z,6.6
2019-02-18T09:08:38.365Z,9.5
2019-02-18T09:09:38.364Z,9.5
2019-02-18T09:10:38.381Z,9.5
2019-02-18T09:11:38.408Z,6.6
2019-02-18T09:12:38.393Z,6.6
2019-02-18T09:13:38.363Z,6.6
2019-02-18T09:14:38.359Z,6.6
2019-02-18T09:15:38.329Z,3.9
2019-02-18T09:16:38.424Z,3.9
2019-02-18T09:17:38.322Z,6.6
2019-02-18T09:18:38.370Z,6.6
2019-02-18T09:19:38.368Z,6.6
2019-02-18T09:20:38.341Z,6.6
2019-02-18T09:21:38.438Z,6.6
2019-02-18T09:22:38.308Z,6.6
2019-02-18T09:23:38.360Z,3.9
2019-02-18T09:24:38.374Z,3.9
2019-02-18T09:25:38.341Z,6.6
2019-02-18T09:26:38.442Z,6.6
2019-02-18T09:27:38.352Z,3.9
2019-02-18T09:28:38.432Z,3.9
2019-02-18T09:29:38.355Z,3.9
2019-02-18T09:30:38.367Z,3.9
2019-02-18T09:31:38.342Z,3.9
2019-02-18T09:32:38.342Z,3.9
2019-02-18T09:33:38.399Z,3.9
2019-02-18T09:34:38.375Z,6.6
2019-02-18T09:35:38.353Z,9.5
2019-02-18T09:36:38.362Z,9.5
2019-02-18T09:37:38.357Z,12.4
2019-02-18T09:38:38.398Z,12.4
2019-02-18T09:39:38.369Z,9.5
2019-02-18T09:40:49.286Z,9.5
2019-02-18T09:41:38.378Z,9.5
2019-02-18T09:42:38.419Z,9.5
2019-02-18T09:43:38.416Z,9.5
2019-02-18T09:44:38.352Z,6.6
2019-02-18T09:45:38.354Z,6.6
2019-02-18T09:46:40.298Z,6.6
2019-02-18T09:47:38.368Z,3.9
2019-02-18T09:48:38.404Z,6.6
2019-02-18T09:49:38.331Z,6.6
2019-02-18T09:50:38.482Z,6.6
2019-02-18T09:51:38.392Z,6.6
2019-02-18T09:52:38.368Z,3.9
2019-02-18T09:53:38.369Z,0
2019-02-18T09:54:38.357Z,0
2019-02-18T09:55:38.392Z,0
2019-02-18T09:56:38.326Z,0
2019-02-18T09:57:38.353Z,6.6
2019-02-18T09:58:38.420Z,6.6
2019-02-18T09:59:38.373Z,1.8
2019-02-18T10:00:38.421Z,3.9
2019-02-18T10:01:38.371Z,1.8
2019-02-18T10:02:38.370Z,3.9
2019-02-18T10:03:38.361Z,6.6
2019-02-18T10:04:38.377Z,0
2019-02-18T10:05:38.396Z,6.6
2019-02-18T10:06:38.339Z,3.9
2019-02-18T10:07:38.350Z,0
2019-02-18T10:08:38.415Z,0
2019-02-18T10:09:38.365Z,0
2019-02-18T10:10:38.395Z,0
2019-02-18T10:11:38.322Z,0
2019-02-18T10:12:38.377Z,0
2019-02-18T10:13:38.332Z,0
2019-02-18T10:14:38.437Z,0
2019-02-18T10:15:38.353Z,3.9
2019-02-18T10:16:38.388Z,6.6
2019-02-18T10:17:38.405Z,3.9
2019-02-18T10:18:38.341Z,3.9
2019-02-18T10:19:38.337Z,3.9
2019-02-18T10:20:38.343Z,3.9
2019-02-18T10:21:39.808Z,6.6
2019-02-18T10:22:38.363Z,6.6
2019-02-18T10:23:38.343Z,3.9
2019-02-18T10:24:38.345Z,6.6
2019-02-18T10:25:38.324Z,15.4
2019-02-18T10:26:38.426Z,9.5
2019-02-18T10:27:38.332Z,12.4
2019-02-18T10:28:38.338Z,3.9
2019-02-18T10:29:38.333Z,3.9
2019-02-18T10:30:38.424Z,0
2019-02-18T10:31:38.340Z,1.8
2019-02-18T10:32:38.542Z,1.8
2019-02-18T10:33:38.307Z,3.9
2019-02-18T10:34:38.345Z,0
2019-02-18T10:35:38.430Z,3.9
2019-02-18T10:36:38.358Z,12.4
2019-02-18T10:37:38.331Z,12.4
2019-02-18T10:38:40.103Z,12.4
2019-02-18T10:39:38.355Z,3.9
2019-02-18T10:40:38.388Z,9.5
2019-02-18T10:41:38.338Z,6.6
2019-02-18T10:42:38.349Z,0
2019-02-18T10:43:42.109Z,0
2019-02-18T10:44:48.226Z,1.8
2019-02-18T10:45:38.343Z,1.8
2019-02-18T10:46:40.561Z,3.9
2019-02-18T10:47:38.328Z,3.9
2019-02-18T10:48:38.370Z,6.6
2019-02-18T10:49:38.426Z,9.5
2019-02-18T10:50:38.332Z,12.4
2019-02-18T10:51:38.820Z,12.4
2019-02-18T10:52:38.428Z,12.4
2019-02-18T10:53:38.356Z,9.5
2019-02-18T10:54:38.369Z,6.6
2019-02-18T10:55:38.347Z,12.4
2019-02-18T10:56:38.368Z,12.4
2019-02-18T10:57:38.457Z,15.4
2019-02-18T10:58:38.589Z,18.3
2019-02-18T10:59:38.401Z,9.5
2019-02-18T11:00:38.333Z,9.5
2019-02-18T11:01:38.340Z,18.3
2019-02-18T11:02:38.395Z,9.5
2019-02-18T11:03:38.357Z,21.3
2019-02-18T11:04:38.407Z,15.4
2019-02-18T11:05:39.216Z,12.4
2019-02-18T11:06:38.708Z,18.3
2019-02-18T11:07:38.418Z,9.5
2019-02-18T11:08:38.349Z,12.4
2019-02-18T11:09:38.414Z,15.4
2019-02-18T11:10:38.342Z,15.4
2019-02-18T11:11:38.401Z,9.5
2019-02-18T11:12:38.338Z,15.4
2019-02-18T11:13:38.332Z,24.3
2019-02-18T11:14:38.434Z,33.3
2019-02-18T11:15:38.334Z,18.3
2019-02-18T11:16:38.341Z,27.3
2019-02-18T11:17:40.450Z,33.3
2019-02-18T11:18:38.325Z,18.3
2019-02-18T11:19:38.392Z,30.3
2019-02-18T11:20:38.405Z,33.3
2019-02-18T11:21:40.617Z,21.3
2019-02-18T11:22:38.422Z,18.3
2019-02-18T11:23:38.478Z,21.3
2019-02-18T11:24:38.333Z,24.3
2019-02-18T11:25:38.340Z,18.3
2019-02-18T11:26:38.388Z,6.6
2019-02-18T11:27:38.432Z,21.3
2019-02-18T11:28:38.353Z,33.3
2019-02-18T11:29:38.423Z,15.4
2019-02-18T11:30:40.357Z,21.3
2019-02-18T11:31:38.355Z,15.4
2019-02-18T11:32:38.399Z,33.3
2019-02-18T11:33:38.346Z,30.3
2019-02-18T11:34:38.557Z,24.3
2019-02-18T11:35:38.427Z,6.6
2019-02-18T11:36:38.368Z,9.5
2019-02-18T11:37:38.355Z,12.4
2019-02-18T11:38:38.341Z,9.5
2019-02-18T11:39:38.409Z,3.9
2019-02-18T11:40:38.415Z,24.3
2019-02-18T11:41:38.361Z,27.3
2019-02-18T11:42:38.818Z,24.3
2019-02-18T11:43:43.077Z,27.3
2019-02-18T11:44:38.356Z,27.3
2019-02-18T11:45:38.363Z,21.3
2019-02-18T11:46:38.358Z,12.4
2019-02-18T11:47:38.355Z,9.5
2019-02-18T11:48:38.426Z,9.5
2019-02-18T11:49:38.348Z,12.4
2019-02-18T11:50:38.341Z,9.5
2019-02-18T11:51:38.336Z,9.5
2019-02-18T11:52:38.343Z,21.3
2019-02-18T11:53:38.404Z,9.5
2019-02-18T11:54:38.353Z,15.4
2019-02-18T11:55:40.225Z,6.6
2019-02-18T11:56:38.400Z,21.3
2019-02-18T11:57:38.392Z,21.3
2019-02-18T11:58:38.353Z,30.3
2019-02-18T11:59:38.418Z,21.3
2019-02-18T12:00:38.349Z,15.4
2019-02-18T12:01:38.345Z,18.3
2019-02-18T12:02:38.420Z,18.3
2019-02-18T12:03:38.361Z,21.3
2019-02-18T12:04:38.358Z,12.4
2019-02-18T12:05:38.481Z,21.3
2019-02-18T12:06:38.367Z,21.3
2019-02-18T12:07:38.407Z,18.3
2019-02-18T12:08:38.369Z,18.3
2019-02-18T12:09:38.360Z,27.3
2019-02-18T12:10:38.404Z,15.4
2019-02-18T12:11:39.635Z,18.3
2019-02-18T12:12:38.348Z,24.3
2019-02-18T12:13:38.658Z,21.3
2019-02-18T12:14:38.461Z,9.5
2019-02-18T12:15:38.353Z,18.3
2019-02-18T12:16:38.381Z,15.4
2019-02-18T12:17:38.343Z,27.3
2019-02-18T12:18:38.402Z,21.3
2019-02-18T12:19:38.423Z,21.3
2019-02-18T12:20:38.681Z,24.3
2019-02-18T12:21:40.793Z,18.3
2019-02-18T12:22:38.371Z,21.3
2019-02-18T12:23:38.350Z,21.3
2019-02-18T12:24:40.494Z,18.3
2019-02-18T12:25:38.351Z,12.4
2019-02-18T12:26:38.366Z,18.3
2019-02-18T12:27:38.407Z,12.4
2019-02-18T12:28:38.855Z,9.5
2019-02-18T12:29:38.462Z,6.6
2019-02-18T12:30:38.357Z,15.4
2019-02-18T12:31:38.408Z,12.4
2019-02-18T12:32:38.388Z,9.5
2019-02-18T12:33:38.336Z,9.5
2019-02-18T12:34:38.345Z,9.5
2019-02-18T12:35:38.351Z,6.6
2019-02-18T12:36:38.411Z,6.6
2019-02-18T12:37:38.348Z,9.5
2019-02-18T12:38:38.354Z,12.4
2019-02-18T12:39:38.358Z,9.5
2019-02-18T12:40:38.391Z,6.6
2019-02-18T12:41:47.919Z,3.9
2019-02-18T12:42:38.361Z,3.9
2019-02-18T12:43:38.356Z,15.4
2019-02-18T12:44:38.350Z,12.4
2019-02-18T12:45:38.424Z,15.4
2019-02-18T12:46:38.413Z,12.4
2019-02-18T12:47:38.367Z,15.4
2019-02-18T12:48:38.359Z,27.3
2019-02-18T12:49:38.429Z,15.4
2019-02-18T12:50:38.374Z,15.4
2019-02-18T12:51:38.723Z,15.4
2019-02-18T12:52:38.369Z,51.3
2019-02-18T12:53:38.395Z,9.5
2019-02-18T12:54:38.415Z,6.6
2019-02-18T12:55:38.342Z,6.6
2019-02-18T12:56:38.419Z,9.5
2019-02-18T12:57:38.366Z,6.6
2019-02-18T12:58:38.509Z,3.9
2019-02-18T12:59:38.562Z,3.9
2019-02-18T13:00:38.391Z,12.4
2019-02-18T13:01:38.435Z,12.4
2019-02-18T13:02:45.728Z,12.4
2019-02-18T13:03:38.414Z,6.6
2019-02-18T13:04:38.421Z,3.9
2019-02-18T13:05:38.729Z,6.6
2019-02-18T13:06:38.361Z,15.4
2019-02-18T13:07:38.364Z,9.5
2019-02-18T13:08:38.451Z,15.4
2019-02-18T13:09:38.367Z,12.4
2019-02-18T13:10:45.139Z,15.4
2019-02-18T13:11:38.370Z,12.4
2019-02-18T13:12:38.740Z,12.4
2019-02-18T13:13:38.357Z,12.4
2019-02-18T13:14:38.379Z,6.6
2019-02-18T13:15:38.457Z,12.4
2019-02-18T13:16:38.411Z,3.9
2019-02-18T13:17:38.407Z,18.3
2019-02-18T13:18:38.344Z,18.3
2019-02-18T13:19:38.418Z,12.4
2019-02-18T13:20:38.655Z,12.4
2019-02-18T13:21:40.458Z,12.4
2019-02-18T13:22:38.391Z,15.4
2019-02-18T13:23:38.359Z,15.4
2019-02-18T13:24:38.346Z,12.4
2019-02-18T13:25:38.426Z,15.4
2019-02-18T13:26:38.359Z,15.4
2019-02-18T13:27:38.834Z,15.4
2019-02-18T13:28:38.350Z,15.4
2019-02-18T13:29:38.398Z,18.3
2019-02-18T13:30:38.361Z,15.4
2019-02-18T13:31:38.360Z,12.4
2019-02-18T13:32:41.484Z,9.5
2019-02-18T13:33:38.334Z,6.6
2019-02-18T13:34:38.357Z,12.4
2019-02-18T13:35:38.817Z,12.4
2019-02-18T13:36:38.335Z,9.5
2019-02-18T13:37:38.405Z,9.5
2019-02-18T13:38:42.111Z,9.5
2019-02-18T13:39:38.348Z,9.5
2019-02-18T13:40:38.386Z,1.8
2019-02-18T13:41:38.361Z,12.4
2019-02-18T13:42:38.721Z,9.5
2019-02-18T13:43:38.446Z,6.6
2019-02-18T13:44:38.362Z,6.6
2019-02-18T13:45:38.349Z,12.4
2019-02-18T13:46:38.359Z,6.6
2019-02-18T13:47:38.466Z,3.9
2019-02-18T13:48:38.437Z,9.5
2019-02-18T13:49:38.406Z,9.5
2019-02-18T13:50:38.693Z,3.9
2019-02-18T13:51:38.411Z,9.5
2019-02-18T13:52:38.354Z,3.9
2019-02-18T13:53:38.418Z,1.8
2019-02-18T13:54:38.363Z,0
2019-02-18T13:55:38.427Z,0
2019-02-18T13:56:38.362Z,0
2019-02-18T13:57:40.034Z,0
2019-02-18T13:58:38.769Z,6.6
2019-02-18T13:59:38.340Z,1.8
2019-02-18T14:00:38.545Z,0